sensor_id;sensor_type;location;lat;lon;timestamp;P1;durP1;ratioP1;P2;durP2;ratioP2
20093;SDS011;10206;48.012;10.030;2023-09-08T00:02:16;12.63;;;11.15;;
20093;SDS011;10206;48.012;10.030;2023-09-08T00:04:42;11.10;;;9.93;;
20093;SDS011;10206;48.012;10.030;2023-09-08T00:07:08;12.05;;;10.55;;
20093;SDS011;10206;48.012;10.030;2023-09-08T00:09:34;14.25;;;11.15;;
20093;SDS011;10206;48.012;10.030;2023-09-08T00:12:00;11.68;;;10.48;;
20093;SDS011;10206;48.012;10.030;2023-09-08T00:14:26;12.13;;;10.63;;
20093;SDS011;10206;48.012;10.030;2023-09-08T00:16:52;14.95;;;11.35;;
20093;SDS011;10206;48.012;10.030;2023-09-08T00:19:19;12.83;;;10.57;;
20093;SDS011;10206;48.012;10.030;2023-09-08T00:21:46;11.15;;;9.68;;
20093;SDS011;10206;48.012;10.030;2023-09-08T00:24:12;13.13;;;11.13;;
20093;SDS011;10206;48.012;10.030;2023-09-08T00:26:38;11.95;;;10.73;;
20093;SDS011;10206;48.012;10.030;2023-09-08T00:29:04;12.82;;;10.90;;
20093;SDS011;10206;48.012;10.030;2023-09-08T00:31:30;12.77;;;10.18;;
20093;SDS011;10206;48.012;10.030;2023-09-08T00:33:56;14.43;;;11.00;;
20093;SDS011;10206;48.012;10.030;2023-09-08T00:36:22;12.07;;;10.77;;
20093;SDS011;10206;48.012;10.030;2023-09-08T00:38:48;13.07;;;10.73;;
20093;SDS011;10206;48.012;10.030;2023-09-08T00:41:14;11.53;;;10.33;;
20093;SDS011;10206;48.012;10.030;2023-09-08T00:43:41;13.10;;;10.83;;
20093;SDS011;10206;48.012;10.030;2023-09-08T00:46:07;12.13;;;10.43;;
20093;SDS011;10206;48.012;10.030;2023-09-08T00:48:34;12.03;;;10.83;;
20093;SDS011;10206;48.012;10.030;2023-09-08T00:51:01;14.43;;;10.63;;
20093;SDS011;10206;48.012;10.030;2023-09-08T00:53:30;11.27;;;10.10;;
20093;SDS011;10206;48.012;10.030;2023-09-08T00:55:56;11.37;;;10.27;;
20093;SDS011;10206;48.012;10.030;2023-09-08T00:58:23;14.10;;;10.90;;
20093;SDS011;10206;48.012;10.030;2023-09-08T01:00:50;11.13;;;10.03;;
20093;SDS011;10206;48.012;10.030;2023-09-08T01:03:16;12.17;;;10.77;;
20093;SDS011;10206;48.012;10.030;2023-09-08T01:05:42;12.07;;;10.00;;
20093;SDS011;10206;48.012;10.030;2023-09-08T01:08:11;12.20;;;10.17;;
20093;SDS011;10206;48.012;10.030;2023-09-08T01:10:38;12.10;;;10.80;;
20093;SDS011;10206;48.012;10.030;2023-09-08T01:13:06;12.80;;;10.67;;
20093;SDS011;10206;48.012;10.030;2023-09-08T01:15:32;11.05;;;9.95;;
20093;SDS011;10206;48.012;10.030;2023-09-08T01:17:58;11.23;;;10.00;;
20093;SDS011;10206;48.012;10.030;2023-09-08T01:20:30;11.97;;;10.67;;
20093;SDS011;10206;48.012;10.030;2023-09-08T01:25:49;12.02;;;10.70;;
20093;SDS011;10206;48.012;10.030;2023-09-08T01:28:22;14.37;;;10.57;;
20093;SDS011;10206;48.012;10.030;2023-09-08T01:30:49;11.60;;;10.23;;
20093;SDS011;10206;48.012;10.030;2023-09-08T01:33:17;11.83;;;10.63;;
20093;SDS011;10206;48.012;10.030;2023-09-08T01:35:43;12.37;;;10.23;;
20093;SDS011;10206;48.012;10.030;2023-09-08T01:38:10;11.07;;;9.90;;
20093;SDS011;10206;48.012;10.030;2023-09-08T01:40:36;12.17;;;10.33;;
20093;SDS011;10206;48.012;10.030;2023-09-08T01:43:02;12.00;;;10.07;;
20093;SDS011;10206;48.012;10.030;2023-09-08T01:45:29;12.13;;;9.90;;
20093;SDS011;10206;48.012;10.030;2023-09-08T01:47:55;12.63;;;10.07;;
20093;SDS011;10206;48.012;10.030;2023-09-08T01:50:21;12.80;;;9.77;;
20093;SDS011;10206;48.012;10.030;2023-09-08T01:52:49;10.43;;;9.33;;
20093;SDS011;10206;48.012;10.030;2023-09-08T01:55:15;10.83;;;9.73;;
20093;SDS011;10206;48.012;10.030;2023-09-08T01:57:42;14.50;;;10.70;;
20093;SDS011;10206;48.012;10.030;2023-09-08T02:00:09;12.67;;;9.40;;
20093;SDS011;10206;48.012;10.030;2023-09-08T02:02:36;11.23;;;9.97;;
20093;SDS011;10206;48.012;10.030;2023-09-08T02:05:02;11.57;;;10.37;;
20093;SDS011;10206;48.012;10.030;2023-09-08T02:07:28;10.50;;;9.33;;
20093;SDS011;10206;48.012;10.030;2023-09-08T02:09:54;10.90;;;9.63;;
20093;SDS011;10206;48.012;10.030;2023-09-08T02:12:21;13.40;;;9.83;;
20093;SDS011;10206;48.012;10.030;2023-09-08T02:14:47;11.30;;;10.00;;
20093;SDS011;10206;48.012;10.030;2023-09-08T02:17:13;10.70;;;9.23;;
20093;SDS011;10206;48.012;10.030;2023-09-08T02:19:39;12.47;;;9.73;;
20093;SDS011;10206;48.012;10.030;2023-09-08T02:22:05;11.03;;;9.83;;
20093;SDS011;10206;48.012;10.030;2023-09-08T02:24:32;11.80;;;10.37;;
20093;SDS011;10206;48.012;10.030;2023-09-08T02:26:58;13.27;;;10.30;;
20093;SDS011;10206;48.012;10.030;2023-09-08T02:29:24;11.60;;;10.13;;
20093;SDS011;10206;48.012;10.030;2023-09-08T02:31:50;12.20;;;10.20;;
20093;SDS011;10206;48.012;10.030;2023-09-08T02:34:16;12.70;;;10.60;;
20093;SDS011;10206;48.012;10.030;2023-09-08T02:36:42;11.13;;;10.03;;
20093;SDS011;10206;48.012;10.030;2023-09-08T02:39:08;13.37;;;10.70;;
20093;SDS011;10206;48.012;10.030;2023-09-08T02:41:35;11.40;;;10.17;;
20093;SDS011;10206;48.012;10.030;2023-09-08T02:44:02;12.37;;;10.60;;
20093;SDS011;10206;48.012;10.030;2023-09-08T02:46:28;11.50;;;10.20;;
20093;SDS011;10206;48.012;10.030;2023-09-08T02:48:54;12.20;;;10.43;;
20093;SDS011;10206;48.012;10.030;2023-09-08T02:51:20;10.50;;;9.40;;
20093;SDS011;10206;48.012;10.030;2023-09-08T02:53:46;12.97;;;10.40;;
20093;SDS011;10206;48.012;10.030;2023-09-08T02:56:12;18.23;;;10.57;;
20093;SDS011;10206;48.012;10.030;2023-09-08T02:58:38;12.13;;;10.30;;
20093;SDS011;10206;48.012;10.030;2023-09-08T03:01:14;12.13;;;9.93;;
20093;SDS011;10206;48.012;10.030;2023-09-08T03:03:45;12.17;;;10.57;;
20093;SDS011;10206;48.012;10.030;2023-09-08T03:06:13;14.80;;;10.57;;
20093;SDS011;10206;48.012;10.030;2023-09-08T03:08:40;12.03;;;10.43;;
20093;SDS011;10206;48.012;10.030;2023-09-08T03:11:07;11.47;;;9.90;;
20093;SDS011;10206;48.012;10.030;2023-09-08T03:13:34;11.77;;;10.33;;
20093;SDS011;10206;48.012;10.030;2023-09-08T03:16:04;11.37;;;9.50;;
20093;SDS011;10206;48.012;10.030;2023-09-08T03:18:32;11.20;;;10.00;;
20093;SDS011;10206;48.012;10.030;2023-09-08T03:20:59;12.60;;;10.17;;
20093;SDS011;10206;48.012;10.030;2023-09-08T03:23:34;11.20;;;10.07;;
20093;SDS011;10206;48.012;10.030;2023-09-08T03:26:03;13.13;;;9.80;;
20093;SDS011;10206;48.012;10.030;2023-09-08T03:28:30;11.80;;;10.37;;
20093;SDS011;10206;48.012;10.030;2023-09-08T03:30:57;11.50;;;10.30;;
20093;SDS011;10206;48.012;10.030;2023-09-08T03:33:23;11.73;;;10.40;;
20093;SDS011;10206;48.012;10.030;2023-09-08T03:35:49;11.97;;;10.10;;
20093;SDS011;10206;48.012;10.030;2023-09-08T03:38:15;11.43;;;10.03;;
20093;SDS011;10206;48.012;10.030;2023-09-08T03:40:41;10.40;;;9.40;;
20093;SDS011;10206;48.012;10.030;2023-09-08T03:43:07;11.27;;;9.60;;
20093;SDS011;10206;48.012;10.030;2023-09-08T03:45:33;11.27;;;10.07;;
20093;SDS011;10206;48.012;10.030;2023-09-08T03:47:59;12.93;;;10.47;;
20093;SDS011;10206;48.012;10.030;2023-09-08T03:50:26;13.73;;;10.60;;
20093;SDS011;10206;48.012;10.030;2023-09-08T03:52:52;13.73;;;11.10;;
20093;SDS011;10206;48.012;10.030;2023-09-08T03:55:18;46.87;;;38.17;;
20093;SDS011;10206;48.012;10.030;2023-09-08T03:57:45;14.33;;;12.50;;
20093;SDS011;10206;48.012;10.030;2023-09-08T04:00:11;13.93;;;11.80;;
20093;SDS011;10206;48.012;10.030;2023-09-08T04:02:37;12.90;;;11.00;;
20093;SDS011;10206;48.012;10.030;2023-09-08T04:05:04;12.57;;;10.17;;
20093;SDS011;10206;48.012;10.030;2023-09-08T04:07:30;12.73;;;10.27;;
20093;SDS011;10206;48.012;10.030;2023-09-08T04:09:56;10.67;;;9.57;;
20093;SDS011;10206;48.012;10.030;2023-09-08T04:12:22;13.07;;;10.00;;
20093;SDS011;10206;48.012;10.030;2023-09-08T04:14:48;12.50;;;10.50;;
20093;SDS011;10206;48.012;10.030;2023-09-08T04:17:14;13.93;;;11.00;;
20093;SDS011;10206;48.012;10.030;2023-09-08T04:19:40;11.87;;;10.40;;
20093;SDS011;10206;48.012;10.030;2023-09-08T04:22:06;12.10;;;10.17;;
20093;SDS011;10206;48.012;10.030;2023-09-08T04:24:36;11.60;;;10.40;;
20093;SDS011;10206;48.012;10.030;2023-09-08T04:27:02;12.57;;;10.90;;
20093;SDS011;10206;48.012;10.030;2023-09-08T04:29:29;14.03;;;11.00;;
20093;SDS011;10206;48.012;10.030;2023-09-08T04:31:55;26.93;;;18.87;;
20093;SDS011;10206;48.012;10.030;2023-09-08T04:34:21;12.10;;;10.90;;
20093;SDS011;10206;48.012;10.030;2023-09-08T04:36:47;14.60;;;11.83;;
20093;SDS011;10206;48.012;10.030;2023-09-08T04:39:13;12.63;;;11.00;;
20093;SDS011;10206;48.012;10.030;2023-09-08T04:41:40;15.53;;;11.37;;
20093;SDS011;10206;48.012;10.030;2023-09-08T04:44:06;13.10;;;11.70;;
20093;SDS011;10206;48.012;10.030;2023-09-08T04:46:33;13.17;;;11.13;;
20093;SDS011;10206;48.012;10.030;2023-09-08T04:49:00;17.07;;;10.80;;
20093;SDS011;10206;48.012;10.030;2023-09-08T04:51:26;12.30;;;10.83;;
20093;SDS011;10206;48.012;10.030;2023-09-08T04:53:52;16.00;;;11.13;;
20093;SDS011;10206;48.012;10.030;2023-09-08T04:56:18;13.63;;;12.13;;
20093;SDS011;10206;48.012;10.030;2023-09-08T04:58:44;12.40;;;11.10;;
20093;SDS011;10206;48.012;10.030;2023-09-08T05:01:10;19.03;;;12.00;;
20093;SDS011;10206;48.012;10.030;2023-09-08T05:03:36;15.33;;;11.40;;
20093;SDS011;10206;48.012;10.030;2023-09-08T05:06:02;12.60;;;11.10;;
20093;SDS011;10206;48.012;10.030;2023-09-08T05:08:28;12.03;;;10.63;;
20093;SDS011;10206;48.012;10.030;2023-09-08T05:10:55;15.70;;;11.23;;
20093;SDS011;10206;48.012;10.030;2023-09-08T05:13:21;13.27;;;10.50;;
20093;SDS011;10206;48.012;10.030;2023-09-08T05:15:51;15.40;;;10.93;;
20093;SDS011;10206;48.012;10.030;2023-09-08T05:18:24;15.23;;;11.33;;
20093;SDS011;10206;48.012;10.030;2023-09-08T05:20:51;12.77;;;11.33;;
20093;SDS011;10206;48.012;10.030;2023-09-08T05:23:18;14.00;;;11.40;;
20093;SDS011;10206;48.012;10.030;2023-09-08T05:25:44;14.33;;;11.03;;
20093;SDS011;10206;48.012;10.030;2023-09-08T05:28:10;15.70;;;11.67;;
20093;SDS011;10206;48.012;10.030;2023-09-08T05:30:36;13.00;;;11.17;;
20093;SDS011;10206;48.012;10.030;2023-09-08T05:33:03;12.70;;;11.30;;
20093;SDS011;10206;48.012;10.030;2023-09-08T05:35:29;12.80;;;11.17;;
20093;SDS011;10206;48.012;10.030;2023-09-08T05:37:55;15.40;;;11.30;;
20093;SDS011;10206;48.012;10.030;2023-09-08T05:40:21;13.27;;;11.57;;
20093;SDS011;10206;48.012;10.030;2023-09-08T05:42:49;14.90;;;11.20;;
20093;SDS011;10206;48.012;10.030;2023-09-08T05:45:16;14.40;;;11.50;;
20093;SDS011;10206;48.012;10.030;2023-09-08T05:47:42;13.17;;;11.60;;
20093;SDS011;10206;48.012;10.030;2023-09-08T05:50:08;15.43;;;11.50;;
20093;SDS011;10206;48.012;10.030;2023-09-08T05:52:34;20.17;;;16.97;;
20093;SDS011;10206;48.012;10.030;2023-09-08T05:55:00;15.30;;;13.27;;
20093;SDS011;10206;48.012;10.030;2023-09-08T05:57:27;21.83;;;15.80;;
20093;SDS011;10206;48.012;10.030;2023-09-08T05:59:53;19.73;;;15.70;;
20093;SDS011;10206;48.012;10.030;2023-09-08T06:02:19;19.40;;;14.10;;
20093;SDS011;10206;48.012;10.030;2023-09-08T06:04:45;17.55;;;13.50;;
20093;SDS011;10206;48.012;10.030;2023-09-08T06:07:11;24.40;;;17.48;;
20093;SDS011;10206;48.012;10.030;2023-09-08T06:09:37;17.20;;;11.65;;
20093;SDS011;10206;48.012;10.030;2023-09-08T06:12:03;11.48;;;9.82;;
20093;SDS011;10206;48.012;10.030;2023-09-08T06:14:30;17.52;;;14.10;;
20093;SDS011;10206;48.012;10.030;2023-09-08T06:16:56;20.42;;;16.33;;
20093;SDS011;10206;48.012;10.030;2023-09-08T06:19:22;11.63;;;10.40;;
20093;SDS011;10206;48.012;10.030;2023-09-08T06:21:48;11.05;;;9.90;;
20093;SDS011;10206;48.012;10.030;2023-09-08T06:24:14;12.02;;;10.02;;
20093;SDS011;10206;48.012;10.030;2023-09-08T06:26:40;13.38;;;10.88;;
20093;SDS011;10206;48.012;10.030;2023-09-08T06:29:07;12.73;;;10.70;;
20093;SDS011;10206;48.012;10.030;2023-09-08T06:31:33;11.48;;;9.98;;
20093;SDS011;10206;48.012;10.030;2023-09-08T06:33:59;12.43;;;10.32;;
20093;SDS011;10206;48.012;10.030;2023-09-08T06:36:26;13.15;;;10.55;;
20093;SDS011;10206;48.012;10.030;2023-09-08T06:38:52;12.45;;;10.52;;
20093;SDS011;10206;48.012;10.030;2023-09-08T06:41:18;10.70;;;9.60;;
20093;SDS011;10206;48.012;10.030;2023-09-08T06:43:44;12.30;;;9.57;;
20093;SDS011;10206;48.012;10.030;2023-09-08T06:46:10;11.38;;;10.13;;
20093;SDS011;10206;48.012;10.030;2023-09-08T06:48:36;11.20;;;9.73;;
20093;SDS011;10206;48.012;10.030;2023-09-08T06:51:03;12.23;;;10.90;;
20093;SDS011;10206;48.012;10.030;2023-09-08T06:53:29;12.48;;;11.18;;
20093;SDS011;10206;48.012;10.030;2023-09-08T06:55:55;13.02;;;11.68;;
20093;SDS011;10206;48.012;10.030;2023-09-08T06:58:22;14.27;;;11.20;;
20093;SDS011;10206;48.012;10.030;2023-09-08T07:00:49;12.85;;;11.27;;
20093;SDS011;10206;48.012;10.030;2023-09-08T07:03:19;13.77;;;10.98;;
20093;SDS011;10206;48.012;10.030;2023-09-08T07:05:46;12.05;;;10.75;;
20093;SDS011;10206;48.012;10.030;2023-09-08T07:08:12;12.73;;;11.35;;
20093;SDS011;10206;48.012;10.030;2023-09-08T07:10:39;12.05;;;10.63;;
20093;SDS011;10206;48.012;10.030;2023-09-08T07:13:05;11.75;;;10.10;;
20093;SDS011;10206;48.012;10.030;2023-09-08T07:15:31;12.07;;;10.82;;
20093;SDS011;10206;48.012;10.030;2023-09-08T07:17:57;13.07;;;11.68;;
20093;SDS011;10206;48.012;10.030;2023-09-08T07:20:23;12.20;;;11.00;;
20093;SDS011;10206;48.012;10.030;2023-09-08T07:22:50;13.80;;;12.50;;
20093;SDS011;10206;48.012;10.030;2023-09-08T07:25:16;13.75;;;12.35;;
20093;SDS011;10206;48.012;10.030;2023-09-08T07:27:42;13.35;;;11.93;;
20093;SDS011;10206;48.012;10.030;2023-09-08T07:30:08;14.35;;;12.95;;
20093;SDS011;10206;48.012;10.030;2023-09-08T07:32:35;13.30;;;11.90;;
20093;SDS011;10206;48.012;10.030;2023-09-08T07:35:01;15.63;;;13.80;;
20093;SDS011;10206;48.012;10.030;2023-09-08T07:37:27;14.57;;;13.13;;
20093;SDS011;10206;48.012;10.030;2023-09-08T07:39:53;16.85;;;13.45;;
20093;SDS011;10206;48.012;10.030;2023-09-08T07:42:20;15.65;;;13.98;;
20093;SDS011;10206;48.012;10.030;2023-09-08T07:44:46;16.30;;;14.70;;
20093;SDS011;10206;48.012;10.030;2023-09-08T07:47:13;15.50;;;14.00;;
20093;SDS011;10206;48.012;10.030;2023-09-08T07:49:39;14.85;;;13.35;;
20093;SDS011;10206;48.012;10.030;2023-09-08T07:52:09;17.67;;;14.05;;
20093;SDS011;10206;48.012;10.030;2023-09-08T07:54:35;18.58;;;14.93;;
20093;SDS011;10206;48.012;10.030;2023-09-08T07:57:01;17.52;;;15.70;;
20093;SDS011;10206;48.012;10.030;2023-09-08T07:59:28;18.65;;;16.60;;
20093;SDS011;10206;48.012;10.030;2023-09-08T08:01:54;18.98;;;16.98;;
20093;SDS011;10206;48.012;10.030;2023-09-08T08:04:20;19.02;;;16.80;;
20093;SDS011;10206;48.012;10.030;2023-09-08T08:06:46;18.35;;;16.45;;
20093;SDS011;10206;48.012;10.030;2023-09-08T08:09:13;19.20;;;16.40;;
20093;SDS011;10206;48.012;10.030;2023-09-08T08:11:39;18.10;;;16.05;;
20093;SDS011;10206;48.012;10.030;2023-09-08T08:14:05;18.73;;;16.10;;
20093;SDS011;10206;48.012;10.030;2023-09-08T08:16:32;16.42;;;14.65;;
20093;SDS011;10206;48.012;10.030;2023-09-08T08:18:58;16.17;;;14.48;;
20093;SDS011;10206;48.012;10.030;2023-09-08T08:21:24;17.60;;;14.63;;
20093;SDS011;10206;48.012;10.030;2023-09-08T08:23:50;17.42;;;15.10;;
20093;SDS011;10206;48.012;10.030;2023-09-08T08:26:16;18.13;;;16.17;;
20093;SDS011;10206;48.012;10.030;2023-09-08T08:28:43;16.25;;;14.38;;
20093;SDS011;10206;48.012;10.030;2023-09-08T08:31:09;18.48;;;14.63;;
20093;SDS011;10206;48.012;10.030;2023-09-08T08:33:36;15.43;;;12.88;;
20093;SDS011;10206;48.012;10.030;2023-09-08T08:36:02;14.52;;;13.13;;
20093;SDS011;10206;48.012;10.030;2023-09-08T08:38:28;15.77;;;14.18;;
20093;SDS011;10206;48.012;10.030;2023-09-08T08:40:54;13.82;;;12.40;;
20093;SDS011;10206;48.012;10.030;2023-09-08T08:43:26;14.90;;;12.60;;
20093;SDS011;10206;48.012;10.030;2023-09-08T08:45:54;14.85;;;13.25;;
20093;SDS011;10206;48.012;10.030;2023-09-08T08:48:22;15.27;;;13.68;;
20093;SDS011;10206;48.012;10.030;2023-09-08T08:50:49;14.88;;;13.38;;
20093;SDS011;10206;48.012;10.030;2023-09-08T08:53:17;12.52;;;11.32;;
20093;SDS011;10206;48.012;10.030;2023-09-08T08:55:45;13.45;;;12.07;;
20093;SDS011;10206;48.012;10.030;2023-09-08T08:58:14;14.18;;;12.20;;
20093;SDS011;10206;48.012;10.030;2023-09-08T09:00:40;15.13;;;12.32;;
20093;SDS011;10206;48.012;10.030;2023-09-08T09:03:06;14.63;;;11.90;;
20093;SDS011;10206;48.012;10.030;2023-09-08T09:05:33;12.77;;;11.57;;
20093;SDS011;10206;48.012;10.030;2023-09-08T09:08:01;11.88;;;10.63;;
20093;SDS011;10206;48.012;10.030;2023-09-08T09:10:29;13.82;;;11.77;;
20093;SDS011;10206;48.012;10.030;2023-09-08T09:12:55;12.52;;;11.23;;
20093;SDS011;10206;48.012;10.030;2023-09-08T09:15:31;11.23;;;10.00;;
20093;SDS011;10206;48.012;10.030;2023-09-08T09:18:03;12.77;;;11.57;;
20093;SDS011;10206;48.012;10.030;2023-09-08T09:20:31;11.52;;;10.40;;
20093;SDS011;10206;48.012;10.030;2023-09-08T09:22:57;12.38;;;11.07;;
20093;SDS011;10206;48.012;10.030;2023-09-08T09:25:24;12.90;;;11.60;;
20093;SDS011;10206;48.012;10.030;2023-09-08T09:27:57;14.25;;;10.20;;
20093;SDS011;10206;48.012;10.030;2023-09-08T09:30:24;11.65;;;10.45;;
20093;SDS011;10206;48.012;10.030;2023-09-08T09:33:01;11.38;;;10.27;;
20093;SDS011;10206;48.012;10.030;2023-09-08T09:35:41;10.82;;;9.82;;
20093;SDS011;10206;48.012;10.030;2023-09-08T09:38:11;11.10;;;9.43;;
20093;SDS011;10206;48.012;10.030;2023-09-08T09:40:38;11.40;;;10.20;;
20093;SDS011;10206;48.012;10.030;2023-09-08T09:43:05;12.85;;;10.70;;
20093;SDS011;10206;48.012;10.030;2023-09-08T09:45:36;10.65;;;9.55;;
20093;SDS011;10206;48.012;10.030;2023-09-08T09:48:03;12.15;;;9.50;;
20093;SDS011;10206;48.012;10.030;2023-09-08T09:50:31;10.73;;;9.63;;
20093;SDS011;10206;48.012;10.030;2023-09-08T09:53:03;11.18;;;9.98;;
20093;SDS011;10206;48.012;10.030;2023-09-08T09:55:42;10.15;;;9.15;;
20093;SDS011;10206;48.012;10.030;2023-09-08T09:58:10;10.18;;;9.25;;
20093;SDS011;10206;48.012;10.030;2023-09-08T10:00:36;12.02;;;9.02;;
20093;SDS011;10206;48.012;10.030;2023-09-08T10:03:06;11.23;;;9.02;;
20093;SDS011;10206;48.012;10.030;2023-09-08T10:05:33;11.23;;;9.10;;
20093;SDS011;10206;48.012;10.030;2023-09-08T10:07:59;10.20;;;9.20;;
20093;SDS011;10206;48.012;10.030;2023-09-08T10:10:26;10.35;;;8.43;;
20093;SDS011;10206;48.012;10.030;2023-09-08T10:12:56;9.50;;;8.60;;
20093;SDS011;10206;48.012;10.030;2023-09-08T10:15:27;10.93;;;8.90;;
20093;SDS011;10206;48.012;10.030;2023-09-08T10:17:56;11.60;;;8.77;;
20093;SDS011;10206;48.012;10.030;2023-09-08T10:20:26;9.10;;;8.18;;
20093;SDS011;10206;48.012;10.030;2023-09-08T10:23:00;9.50;;;8.38;;
20093;SDS011;10206;48.012;10.030;2023-09-08T10:25:31;9.60;;;8.70;;
20093;SDS011;10206;48.012;10.030;2023-09-08T10:28:02;9.07;;;8.18;;
20093;SDS011;10206;48.012;10.030;2023-09-08T10:30:30;9.32;;;8.43;;
20093;SDS011;10206;48.012;10.030;2023-09-08T10:32:56;10.10;;;9.10;;
20093;SDS011;10206;48.012;10.030;2023-09-08T10:35:24;9.18;;;8.32;;
20093;SDS011;10206;48.012;10.030;2023-09-08T10:37:50;10.07;;;8.88;;
20093;SDS011;10206;48.012;10.030;2023-09-08T10:40:37;9.73;;;8.48;;
20093;SDS011;10206;48.012;10.030;2023-09-08T10:43:06;8.52;;;7.70;;
20093;SDS011;10206;48.012;10.030;2023-09-08T10:45:34;8.70;;;7.80;;
20093;SDS011;10206;48.012;10.030;2023-09-08T10:48:00;9.75;;;8.73;;
20093;SDS011;10206;48.012;10.030;2023-09-08T10:50:32;9.98;;;8.10;;
20093;SDS011;10206;48.012;10.030;2023-09-08T10:53:18;8.38;;;7.57;;
20093;SDS011;10206;48.012;10.030;2023-09-08T10:55:45;9.55;;;8.68;;
20093;SDS011;10206;48.012;10.030;2023-09-08T10:58:19;10.52;;;8.57;;
20093;SDS011;10206;48.012;10.030;2023-09-08T11:00:53;10.68;;;9.02;;
20093;SDS011;10206;48.012;10.030;2023-09-08T11:03:28;9.77;;;8.63;;
20093;SDS011;10206;48.012;10.030;2023-09-08T11:06:09;11.20;;;8.68;;
20093;SDS011;10206;48.012;10.030;2023-09-08T11:08:37;11.10;;;8.40;;
20093;SDS011;10206;48.012;10.030;2023-09-08T11:11:05;10.40;;;8.23;;
20093;SDS011;10206;48.012;10.030;2023-09-08T11:13:32;13.13;;;8.93;;
20093;SDS011;10206;48.012;10.030;2023-09-08T11:15:58;10.35;;;8.95;;
20093;SDS011;10206;48.012;10.030;2023-09-08T11:20:54;10.85;;;9.32;;
20093;SDS011;10206;48.012;10.030;2023-09-08T11:23:22;9.68;;;8.68;;
20093;SDS011;10206;48.012;10.030;2023-09-08T11:25:49;10.80;;;9.05;;
20093;SDS011;10206;48.012;10.030;2023-09-08T11:28:17;9.35;;;8.48;;
20093;SDS011;10206;48.012;10.030;2023-09-08T11:30:50;9.68;;;8.77;;
20093;SDS011;10206;48.012;10.030;2023-09-08T11:33:17;9.25;;;8.45;;
20093;SDS011;10206;48.012;10.030;2023-09-08T11:35:47;9.02;;;8.13;;
20093;SDS011;10206;48.012;10.030;2023-09-08T11:38:13;8.88;;;8.07;;
20093;SDS011;10206;48.012;10.030;2023-09-08T11:40:40;9.10;;;8.20;;
20093;SDS011;10206;48.012;10.030;2023-09-08T11:43:07;11.45;;;7.65;;
20093;SDS011;10206;48.012;10.030;2023-09-08T11:45:33;9.07;;;8.18;;
20093;SDS011;10206;48.012;10.030;2023-09-08T11:48:00;8.35;;;7.65;;
20093;SDS011;10206;48.012;10.030;2023-09-08T11:50:27;9.15;;;8.25;;
20093;SDS011;10206;48.012;10.030;2023-09-08T11:52:53;10.10;;;9.20;;
20093;SDS011;10206;48.012;10.030;2023-09-08T11:55:21;10.40;;;8.57;;
20093;SDS011;10206;48.012;10.030;2023-09-08T11:57:48;10.13;;;7.85;;
20093;SDS011;10206;48.012;10.030;2023-09-08T12:00:19;9.50;;;8.43;;
20093;SDS011;10206;48.012;10.030;2023-09-08T12:02:48;9.30;;;7.22;;
20093;SDS011;10206;48.012;10.030;2023-09-08T12:05:24;8.77;;;7.80;;
20093;SDS011;10206;48.012;10.030;2023-09-08T12:07:51;8.85;;;7.97;;
20093;SDS011;10206;48.012;10.030;2023-09-08T12:10:20;9.00;;;7.90;;
20093;SDS011;10206;48.012;10.030;2023-09-08T12:12:48;11.45;;;8.75;;
20093;SDS011;10206;48.012;10.030;2023-09-08T12:17:58;8.68;;;7.75;;
20093;SDS011;10206;48.012;10.030;2023-09-08T12:20:28;8.30;;;7.50;;
20093;SDS011;10206;48.012;10.030;2023-09-08T12:22:56;9.35;;;8.55;;
20093;SDS011;10206;48.012;10.030;2023-09-08T12:25:25;11.73;;;7.75;;
20093;SDS011;10206;48.012;10.030;2023-09-08T12:27:53;8.98;;;8.07;;
20093;SDS011;10206;48.012;10.030;2023-09-08T12:30:20;8.27;;;7.47;;
20093;SDS011;10206;48.012;10.030;2023-09-08T12:32:49;10.07;;;8.13;;
20093;SDS011;10206;48.012;10.030;2023-09-08T12:35:22;8.75;;;7.60;;
20093;SDS011;10206;48.012;10.030;2023-09-08T12:37:53;9.35;;;8.18;;
20093;SDS011;10206;48.012;10.030;2023-09-08T12:40:27;8.60;;;7.45;;
20093;SDS011;10206;48.012;10.030;2023-09-08T12:42:54;8.30;;;7.50;;
20093;SDS011;10206;48.012;10.030;2023-09-08T12:45:21;8.43;;;7.53;;
20093;SDS011;10206;48.012;10.030;2023-09-08T12:47:48;7.95;;;7.25;;
20093;SDS011;10206;48.012;10.030;2023-09-08T12:50:14;9.48;;;7.78;;
20093;SDS011;10206;48.012;10.030;2023-09-08T12:52:40;10.13;;;7.35;;
20093;SDS011;10206;48.012;10.030;2023-09-08T12:55:07;7.88;;;7.07;;
20093;SDS011;10206;48.012;10.030;2023-09-08T12:57:34;8.93;;;8.07;;
20093;SDS011;10206;48.012;10.030;2023-09-08T13:00:00;11.10;;;7.30;;
20093;SDS011;10206;48.012;10.030;2023-09-08T13:02:28;9.20;;;7.28;;
20093;SDS011;10206;48.012;10.030;2023-09-08T13:04:54;8.20;;;7.40;;
20093;SDS011;10206;48.012;10.030;2023-09-08T13:07:20;8.80;;;7.72;;
20093;SDS011;10206;48.012;10.030;2023-09-08T13:09:46;8.00;;;7.20;;
20093;SDS011;10206;48.012;10.030;2023-09-08T13:12:12;8.73;;;7.70;;
20093;SDS011;10206;48.012;10.030;2023-09-08T13:14:39;8.60;;;7.70;;
20093;SDS011;10206;48.012;10.030;2023-09-08T13:17:05;8.27;;;7.53;;
20093;SDS011;10206;48.012;10.030;2023-09-08T13:19:32;8.55;;;7.75;;
20093;SDS011;10206;48.012;10.030;2023-09-08T13:21:58;8.18;;;7.35;;
20093;SDS011;10206;48.012;10.030;2023-09-08T13:24:25;8.20;;;7.35;;
20093;SDS011;10206;48.012;10.030;2023-09-08T13:26:51;8.10;;;7.30;;
20093;SDS011;10206;48.012;10.030;2023-09-08T13:29:17;8.57;;;7.70;;
20093;SDS011;10206;48.012;10.030;2023-09-08T13:31:43;8.60;;;7.78;;
20093;SDS011;10206;48.012;10.030;2023-09-08T13:34:09;11.38;;;8.43;;
20093;SDS011;10206;48.012;10.030;2023-09-08T13:36:35;10.15;;;7.88;;
20093;SDS011;10206;48.012;10.030;2023-09-08T13:39:02;8.45;;;7.70;;
20093;SDS011;10206;48.012;10.030;2023-09-08T13:41:44;8.07;;;7.28;;
20093;SDS011;10206;48.012;10.030;2023-09-08T13:44:13;8.32;;;7.53;;
20093;SDS011;10206;48.012;10.030;2023-09-08T13:46:39;8.05;;;7.32;;
20093;SDS011;10206;48.012;10.030;2023-09-08T13:49:05;8.25;;;7.43;;
20093;SDS011;10206;48.012;10.030;2023-09-08T13:51:31;8.07;;;7.38;;
20093;SDS011;10206;48.012;10.030;2023-09-08T13:53:58;8.85;;;7.70;;
20093;SDS011;10206;48.012;10.030;2023-09-08T13:56:24;17.83;;;12.50;;
20093;SDS011;10206;48.012;10.030;2023-09-08T13:58:51;8.50;;;7.60;;
20093;SDS011;10206;48.012;10.030;2023-09-08T14:01:17;8.35;;;7.55;;
20093;SDS011;10206;48.012;10.030;2023-09-08T14:03:43;9.23;;;8.32;;
20093;SDS011;10206;48.012;10.030;2023-09-08T14:06:09;9.10;;;8.13;;
20093;SDS011;10206;48.012;10.030;2023-09-08T14:08:35;8.32;;;7.47;;
20093;SDS011;10206;48.012;10.030;2023-09-08T14:11:01;10.00;;;7.93;;
20093;SDS011;10206;48.012;10.030;2023-09-08T14:13:27;8.68;;;7.88;;
20093;SDS011;10206;48.012;10.030;2023-09-08T14:15:53;9.05;;;8.15;;
20093;SDS011;10206;48.012;10.030;2023-09-08T14:18:20;8.32;;;7.53;;
20093;SDS011;10206;48.012;10.030;2023-09-08T14:20:46;8.90;;;7.60;;
20093;SDS011;10206;48.012;10.030;2023-09-08T14:23:12;8.55;;;7.75;;
20093;SDS011;10206;48.012;10.030;2023-09-08T14:25:38;8.70;;;7.80;;